createdAt,value
2022-07-29T00:04:06.406Z,14.57
2022-07-29T00:09:08.232Z,14.45
2022-07-29T00:14:09.712Z,14.40
2022-07-29T00:19:10.859Z,14.39
2022-07-29T00:24:12.495Z,14.37
2022-07-29T00:34:53.525Z,14.31
2022-07-29T00:39:55.502Z,14.29
2022-07-29T00:44:56.668Z,14.23
2022-07-29T00:49:57.734Z,14.18
2022-07-29T00:54:59.089Z,14.20
2022-07-29T01:00:00.521Z,14.18
2022-07-29T01:05:04.002Z,14.14
2022-07-29T01:10:08.104Z,14.12
2022-07-29T01:15:09.626Z,14.10
2022-07-29T01:20:18.026Z,14.06
2022-07-29T01:25:46.565Z,13.97
2022-07-29T01:30:53.053Z,13.87
2022-07-29T01:35:54.478Z,13.84
2022-07-29T01:41:10.035Z,13.75
2022-07-29T01:46:21.580Z,13.60
2022-07-29T01:51:36.177Z,13.52
2022-07-29T01:56:39.180Z,13.46
2022-07-29T02:01:43.101Z,13.48
2022-07-29T02:06:45.169Z,13.44
2022-07-29T02:11:51.117Z,13.36
2022-07-29T02:16:54.495Z,13.34
2022-07-29T02:21:57.889Z,13.30
2022-07-29T02:27:01.032Z,13.31
2022-07-29T02:32:04.014Z,13.34
2022-07-29T02:37:05.576Z,13.33
2022-07-29T02:42:10.192Z,13.28
2022-07-29T02:47:19.392Z,13.22
2022-07-29T02:52:40.126Z,13.19
2022-07-29T02:57:53.882Z,13.14
2022-07-29T03:02:59.838Z,13.04
2022-07-29T03:08:10.750Z,12.96
2022-07-29T03:13:13.399Z,13.00
2022-07-29T03:18:15.688Z,13.12
2022-07-29T03:23:22.947Z,13.32
2022-07-29T03:28:27.439Z,13.52
2022-07-29T03:33:30.486Z,13.64
2022-07-29T03:38:35.989Z,13.76
2022-07-29T03:43:49.089Z,13.95
2022-07-29T03:48:56.479Z,14.06
2022-07-29T03:53:58.694Z,14.10
2022-07-29T03:59:02.409Z,14.10
2022-07-29T04:04:04.936Z,14.29
2022-07-29T04:09:06.297Z,14.62
2022-07-29T04:14:11.154Z,14.90
2022-07-29T04:19:12.331Z,15.15
2022-07-29T04:24:13.920Z,15.41
2022-07-29T04:29:15.485Z,15.71
2022-07-29T04:34:17.175Z,15.91
2022-07-29T04:39:22.807Z,15.89
2022-07-29T04:44:28.574Z,15.69
2022-07-29T04:49:30.308Z,15.50
2022-07-29T04:54:31.498Z,15.37
2022-07-29T04:59:32.602Z,15.29
2022-07-29T05:04:33.723Z,15.23
2022-07-29T05:09:34.868Z,15.30
2022-07-29T05:14:36.259Z,15.49
2022-07-29T05:19:39.352Z,19.27
2022-07-29T05:24:41.040Z,24.66
2022-07-29T05:29:42.984Z,28.94
2022-07-29T05:34:51.146Z,32.15
2022-07-29T05:39:56.523Z,34.46
2022-07-29T05:44:58.499Z,36.00
2022-07-29T05:49:59.710Z,37.05
2022-07-29T05:55:04.433Z,37.13
2022-07-29T06:00:06.602Z,36.42
2022-07-29T06:05:07.908Z,36.30
2022-07-29T06:10:14.235Z,36.76
2022-07-29T06:15:15.772Z,37.63
2022-07-29T06:20:16.880Z,38.17
2022-07-29T06:25:18.467Z,38.16
2022-07-29T06:30:19.733Z,38.01
2022-07-29T06:35:38.948Z,37.46
2022-07-29T06:41:03.061Z,36.67
2022-07-29T06:46:07.753Z,37.17
2022-07-29T06:51:10.401Z,37.52
2022-07-29T06:56:14.058Z,37.57
2022-07-29T07:01:15.645Z,37.46
2022-07-29T07:06:16.912Z,36.76
2022-07-29T07:11:18.097Z,37.56
2022-07-29T07:16:19.388Z,38.78
2022-07-29T07:21:20.715Z,39.41
2022-07-29T07:26:21.948Z,39.84
2022-07-29T07:31:23.182Z,39.34
2022-07-29T07:36:24.610Z,38.53
2022-07-29T07:41:25.842Z,38.19
2022-07-29T07:46:27.176Z,38.16
2022-07-29T07:51:28.484Z,38.04
2022-07-29T07:56:34.881Z,37.53
2022-07-29T08:01:55.116Z,36.60
2022-07-29T08:06:58.495Z,36.37
2022-07-29T08:11:59.671Z,36.50
2022-07-29T08:17:01.022Z,36.90
2022-07-29T08:22:02.511Z,36.66
2022-07-29T08:27:03.686Z,35.83
2022-07-29T08:32:05.579Z,35.08
2022-07-29T08:37:06.708Z,34.34
2022-07-29T08:42:07.931Z,33.55
2022-07-29T08:47:09.214Z,33.00
2022-07-29T08:52:11.667Z,32.75
2022-07-29T08:57:16.760Z,32.49
2022-07-29T09:02:21.156Z,31.99
2022-07-29T09:07:22.296Z,31.30
2022-07-29T09:12:28.719Z,30.66
2022-07-29T09:17:49.758Z,30.44
2022-07-29T09:22:53.753Z,30.41
2022-07-29T09:27:54.886Z,30.61
2022-07-29T09:33:00.231Z,30.77
2022-07-29T09:38:14.033Z,30.99
2022-07-29T09:43:15.304Z,30.88
2022-07-29T09:48:25.274Z,30.12
2022-07-29T09:53:37.943Z,29.87
2022-07-29T09:58:39.190Z,29.11
2022-07-29T10:03:59.460Z,28.20
2022-07-29T10:09:19.746Z,27.16
2022-07-29T10:14:23.874Z,27.12
2022-07-29T10:19:25.308Z,27.35
2022-07-29T10:24:28.438Z,26.96
2022-07-29T10:29:31.573Z,26.44
2022-07-29T10:34:54.268Z,26.56
2022-07-29T10:40:33.402Z,26.65
2022-07-29T10:45:37.251Z,26.40
2022-07-29T10:51:04.455Z,26.05
2022-07-29T10:56:26.717Z,26.17
2022-07-29T11:01:37.222Z,25.84
2022-07-29T11:06:58.708Z,26.04
2022-07-29T11:12:01.027Z,26.41
2022-07-29T11:17:06.975Z,26.80
2022-07-29T11:22:10.173Z,26.89
2022-07-29T11:27:18.228Z,26.40
2022-07-29T11:32:24.183Z,26.19
2022-07-29T11:37:27.896Z,26.42
2022-07-29T11:42:35.328Z,26.74
2022-07-29T11:47:40.643Z,26.95
2022-07-29T11:52:49.581Z,26.96
2022-07-29T11:58:04.041Z,26.90
2022-07-29T12:03:11.271Z,26.76
2022-07-29T12:08:19.874Z,26.59
2022-07-29T12:13:22.227Z,26.63
2022-07-29T12:18:24.879Z,26.67
2022-07-29T12:23:29.288Z,26.68
2022-07-29T12:28:39.507Z,26.57
2022-07-29T12:33:41.484Z,26.73
2022-07-29T12:38:43.420Z,27.08
2022-07-29T12:44:03.476Z,27.20
2022-07-29T12:49:04.783Z,27.42
2022-07-29T12:54:11.189Z,27.73
2022-07-29T12:59:13.843Z,27.94
2022-07-29T13:04:36.773Z,28.05
2022-07-29T13:09:40.741Z,27.90
2022-07-29T13:14:51.422Z,27.80
2022-07-29T13:20:05.146Z,27.78
2022-07-29T13:25:10.264Z,27.74
2022-07-29T13:30:12.620Z,27.72
2022-07-29T13:35:14.523Z,27.69
2022-07-29T13:40:15.856Z,27.84
2022-07-29T13:45:17.651Z,27.83
2022-07-29T13:50:19.039Z,27.78
2022-07-29T13:55:20.799Z,27.69
2022-07-29T14:00:23.827Z,27.63
2022-07-29T14:05:24.969Z,27.36
2022-07-29T14:10:26.939Z,26.97
2022-07-29T14:15:28.213Z,26.67
2022-07-29T14:20:30.132Z,26.39
2022-07-29T14:25:31.365Z,26.19
2022-07-29T14:30:32.550Z,26.14
2022-07-29T14:35:33.721Z,26.38
2022-07-29T14:40:35.196Z,26.83
2022-07-29T14:45:36.414Z,27.20
2022-07-29T14:50:38.371Z,27.25
2022-07-29T14:55:40.707Z,27.12
2022-07-29T15:00:42.034Z,26.80
2022-07-29T15:05:43.602Z,26.54
2022-07-29T15:10:44.844Z,26.43
2022-07-29T15:15:46.107Z,26.28
2022-07-29T15:20:47.378Z,26.12
2022-07-29T15:25:48.529Z,25.78
2022-07-29T15:30:49.674Z,25.30
2022-07-29T15:35:50.793Z,24.95
2022-07-29T15:40:51.968Z,24.64
2022-07-29T15:46:11.914Z,24.55
2022-07-29T15:51:14.302Z,24.66
2022-07-29T15:56:15.636Z,24.82
2022-07-29T16:01:17.851Z,24.92
2022-07-29T16:06:19.628Z,24.91
2022-07-29T16:11:21.013Z,24.82
2022-07-29T16:16:22.366Z,24.67
2022-07-29T16:21:24.056Z,24.59
2022-07-29T16:26:25.195Z,24.56
2022-07-29T16:31:27.222Z,24.49
2022-07-29T16:36:28.591Z,24.22
2022-07-29T16:41:29.778Z,24.09
2022-07-29T16:46:31.075Z,23.90
2022-07-29T16:51:32.829Z,23.67
2022-07-29T16:56:34.318Z,23.43
2022-07-29T17:01:35.753Z,23.20
2022-07-29T17:06:39.060Z,23.07
2022-07-29T17:11:52.349Z,23.03
2022-07-29T17:17:02.014Z,23.05
2022-07-29T17:22:19.048Z,22.98
2022-07-29T17:27:20.885Z,22.93
2022-07-29T17:32:22.650Z,22.87
2022-07-29T17:37:23.782Z,22.73
2022-07-29T17:42:24.928Z,22.59
2022-07-29T17:47:26.057Z,22.46
2022-07-29T17:52:27.144Z,22.33
2022-07-29T17:57:28.513Z,22.18
2022-07-29T18:02:29.893Z,21.96
2022-07-29T18:07:31.311Z,21.78
2022-07-29T18:12:32.465Z,21.61
2022-07-29T18:17:52.670Z,21.46
2022-07-29T18:22:55.100Z,21.26
2022-07-29T18:28:00.361Z,21.12
2022-07-29T18:33:20.618Z,20.97
2022-07-29T18:38:22.540Z,20.82
2022-07-29T18:43:23.717Z,20.67
2022-07-29T18:48:24.918Z,20.52
2022-07-29T18:53:26.188Z,20.33
2022-07-29T18:58:27.509Z,20.15
2022-07-29T19:03:29.318Z,19.96
2022-07-29T19:08:30.478Z,19.80
2022-07-29T19:13:32.753Z,19.64
2022-07-29T19:18:33.894Z,19.50
2022-07-29T19:24:01.490Z,19.36
2022-07-29T19:28:56.649Z,19.24
2022-07-29T19:33:57.845Z,19.12
2022-07-29T19:38:59.884Z,18.98
2022-07-29T19:44:01.221Z,18.84
2022-07-29T19:49:05.677Z,18.70
2022-07-29T19:54:07.971Z,18.56
2022-07-29T19:59:10.602Z,18.44
2022-07-29T20:04:11.718Z,18.34
2022-07-29T20:09:16.980Z,18.26
2022-07-29T20:14:22.244Z,18.15
2022-07-29T20:19:23.734Z,18.06
2022-07-29T20:24:25.205Z,17.96
2022-07-29T20:29:26.325Z,17.85
2022-07-29T20:34:27.533Z,17.73
2022-07-29T20:39:29.493Z,17.61
2022-07-29T20:44:30.615Z,17.50
2022-07-29T20:49:31.786Z,17.39
2022-07-29T20:54:33.099Z,17.32
2022-07-29T20:59:34.219Z,17.24
2022-07-29T21:04:36.360Z,17.19
2022-07-29T21:09:37.525Z,17.14
2022-07-29T21:14:38.953Z,17.09
2022-07-29T21:19:40.552Z,17.00
2022-07-29T21:24:41.724Z,16.94
2022-07-29T21:29:43.052Z,16.88
2022-07-29T21:34:44.229Z,16.78
2022-07-29T21:39:45.407Z,16.68
2022-07-29T21:44:46.884Z,16.60
2022-07-29T21:49:48.101Z,16.50
2022-07-29T21:54:51.066Z,16.37
2022-07-29T21:59:52.375Z,16.28
2022-07-29T22:04:53.566Z,16.19
2022-07-29T22:09:55.026Z,16.08
2022-07-29T22:14:56.493Z,15.94
2022-07-29T22:19:57.968Z,15.83
2022-07-29T22:24:59.096Z,15.74
2022-07-29T22:30:00.165Z,15.66
2022-07-29T22:35:01.778Z,15.60
2022-07-29T22:40:04.078Z,15.57
2022-07-29T22:45:05.656Z,15.53
2022-07-29T22:50:07.204Z,15.49
2022-07-29T22:55:08.823Z,15.45
2022-07-29T23:00:11.594Z,15.39
2022-07-29T23:05:14.852Z,15.35
2022-07-29T23:10:15.944Z,15.27
2022-07-29T23:15:17.086Z,15.20
2022-07-29T23:20:19.348Z,15.10
2022-07-29T23:25:20.523Z,14.97
2022-07-29T23:30:21.735Z,14.87
2022-07-29T23:35:22.882Z,14.81
2022-07-29T23:40:24.093Z,14.80
2022-07-29T23:45:39.970Z,14.81
2022-07-29T23:50:46.227Z,14.80
2022-07-29T23:55:47.255Z,14.78
